createdAt,value
2022-10-19T00:00:05.702Z,86.05
2022-10-19T00:02:37.142Z,86.16
2022-10-19T00:05:05.698Z,86.10
2022-10-19T00:07:35.178Z,85.68
2022-10-19T00:10:03.447Z,85.84
2022-10-19T00:12:31.560Z,85.54
2022-10-19T00:14:59.847Z,85.87
2022-10-19T00:17:27.885Z,85.90
2022-10-19T00:19:57.345Z,85.94
2022-10-19T00:22:25.357Z,85.73
2022-10-19T00:24:53.341Z,85.56
2022-10-19T00:27:21.312Z,85.55
2022-10-19T00:29:49.398Z,85.80
2022-10-19T00:32:17.405Z,85.87
2022-10-19T00:34:45.394Z,86.03
2022-10-19T00:37:14.764Z,85.67
2022-10-19T00:39:42.786Z,85.47
2022-10-19T00:42:12.190Z,85.48
2022-10-19T00:45:05.463Z,85.66
2022-10-19T00:47:33.747Z,85.75
2022-10-19T00:50:01.821Z,85.72
2022-10-19T00:52:34.419Z,85.64
2022-10-19T00:55:03.539Z,85.81
2022-10-19T00:57:32.441Z,85.24
2022-10-19T01:00:01.749Z,85.41
2022-10-19T01:02:29.933Z,85.70
2022-10-19T01:04:57.935Z,85.75
2022-10-19T01:07:26.586Z,85.77
2022-10-19T01:09:56.445Z,85.75
2022-10-19T01:12:49.621Z,85.65
2022-10-19T01:15:24.141Z,85.80
2022-10-19T01:17:59.518Z,85.73
2022-10-19T01:21:15.291Z,85.70
2022-10-19T01:24:19.192Z,85.66
2022-10-19T01:27:14.947Z,85.56
2022-10-19T01:30:08.396Z,85.37
2022-10-19T01:32:43.219Z,85.56
2022-10-19T01:35:15.068Z,85.43
2022-10-19T01:37:48.413Z,85.38
2022-10-19T01:40:21.277Z,85.55
2022-10-19T01:45:32.313Z,85.55
2022-10-19T01:48:02.756Z,85.57
2022-10-19T01:50:35.261Z,85.30
2022-10-19T01:53:05.203Z,85.57
2022-10-19T01:55:33.891Z,85.44
2022-10-19T01:58:07.141Z,85.14
2022-10-19T02:00:41.615Z,85.10
2022-10-19T02:03:10.108Z,85.16
2022-10-19T02:05:39.920Z,85.15
2022-10-19T02:08:12.567Z,85.02
2022-10-19T02:10:43.195Z,85.21
2022-10-19T02:13:12.365Z,85.37
2022-10-19T02:15:45.327Z,85.25
2022-10-19T02:18:15.362Z,85.19
2022-10-19T02:20:43.347Z,84.93
2022-10-19T02:23:11.422Z,85.09
2022-10-19T02:25:39.442Z,84.94
2022-10-19T02:28:07.553Z,85.37
2022-10-19T02:30:35.611Z,85.04
2022-10-19T02:33:05.097Z,84.88
2022-10-19T02:35:33.148Z,85.13
2022-10-19T02:38:02.403Z,85.14
2022-10-19T02:40:33.997Z,85.25
2022-10-19T02:43:05.162Z,84.93
2022-10-19T02:45:36.277Z,85.10
2022-10-19T02:48:08.879Z,84.73
2022-10-19T02:50:37.099Z,84.73
2022-10-19T02:53:05.118Z,84.80
2022-10-19T02:55:33.184Z,84.75
2022-10-19T02:58:01.221Z,84.98
2022-10-19T03:00:29.189Z,84.81
2022-10-19T03:02:57.173Z,84.85
2022-10-19T03:05:26.566Z,85.05
2022-10-19T03:07:54.538Z,84.89
2022-10-19T03:10:22.561Z,85.01
2022-10-19T03:12:50.539Z,85.27
2022-10-19T03:15:19.558Z,85.18
2022-10-19T03:17:47.533Z,85.49
2022-10-19T03:20:15.621Z,85.54
2022-10-19T03:22:45.014Z,85.62
2022-10-19T03:25:12.985Z,85.98
2022-10-19T03:27:40.994Z,85.88
2022-10-19T03:30:09.509Z,85.89
2022-10-19T03:32:37.467Z,85.70
2022-10-19T03:35:06.267Z,85.81
2022-10-19T03:37:34.525Z,85.75
2022-10-19T03:40:04.413Z,85.88
2022-10-19T03:42:32.458Z,85.76
2022-10-19T03:45:00.462Z,85.70
2022-10-19T03:47:28.463Z,85.95
2022-10-19T03:49:56.461Z,85.85
2022-10-19T03:52:24.445Z,86.05
2022-10-19T03:54:52.681Z,86.16
2022-10-19T03:57:22.020Z,86.13
2022-10-19T03:59:50.042Z,86.25
2022-10-19T04:02:18.046Z,86.00
2022-10-19T04:04:46.003Z,86.17
2022-10-19T04:07:14.009Z,86.04
2022-10-19T04:09:41.974Z,86.09
2022-10-19T04:12:09.968Z,86.18
2022-10-19T04:14:52.866Z,85.87
2022-10-19T04:17:24.840Z,85.84
2022-10-19T04:19:52.872Z,85.93
2022-10-19T04:22:20.863Z,86.09
2022-10-19T04:24:48.960Z,85.72
2022-10-19T04:27:16.990Z,86.03
2022-10-19T04:29:46.371Z,86.05
2022-10-19T04:32:14.445Z,85.73
2022-10-19T04:34:42.453Z,85.81
2022-10-19T04:37:10.460Z,85.96
2022-10-19T04:39:41.068Z,85.74
2022-10-19T04:42:09.031Z,85.83
2022-10-19T04:44:37.078Z,86.02
2022-10-19T04:47:06.467Z,85.78
2022-10-19T04:49:34.443Z,86.03
2022-10-19T04:52:02.447Z,85.71
2022-10-19T04:54:30.424Z,85.85
2022-10-19T04:56:58.375Z,85.64
2022-10-19T04:59:26.464Z,85.79
2022-10-19T05:01:54.435Z,85.76
2022-10-19T05:04:23.788Z,85.97
2022-10-19T05:06:51.784Z,86.00
2022-10-19T05:09:19.785Z,85.71
2022-10-19T05:11:50.058Z,85.91
2022-10-19T05:14:18.276Z,86.02
2022-10-19T05:16:46.303Z,85.85
2022-10-19T05:19:15.064Z,85.95
2022-10-19T05:21:44.448Z,85.91
2022-10-19T05:24:13.474Z,85.62
2022-10-19T05:26:41.488Z,86.09
2022-10-19T05:29:12.897Z,86.02
2022-10-19T05:31:41.285Z,85.87
2022-10-19T05:34:09.372Z,85.76
2022-10-19T05:36:39.051Z,85.68
2022-10-19T05:39:13.160Z,85.71
2022-10-19T05:41:41.845Z,86.15
2022-10-19T05:44:15.170Z,86.07
2022-10-19T05:46:43.417Z,86.26
2022-10-19T05:49:12.334Z,85.99
2022-10-19T05:51:40.410Z,86.03
2022-10-19T05:54:10.842Z,85.88
2022-10-19T05:56:39.237Z,85.92
2022-10-19T05:59:08.733Z,85.75
2022-10-19T06:01:37.360Z,85.75
2022-10-19T06:04:07.277Z,86.14
2022-10-19T06:06:35.478Z,85.99
2022-10-19T06:09:03.754Z,85.89
2022-10-19T06:11:35.175Z,85.88
2022-10-19T06:14:05.568Z,85.93
2022-10-19T06:16:34.158Z,86.10
2022-10-19T06:19:02.223Z,86.12
2022-10-19T06:21:32.512Z,86.19
2022-10-19T06:24:02.415Z,85.97
2022-10-19T06:26:32.382Z,86.27
2022-10-19T06:29:02.538Z,86.14
2022-10-19T06:31:31.385Z,86.51
2022-10-19T06:33:59.491Z,86.19
2022-10-19T06:36:30.533Z,86.45
2022-10-19T06:38:59.692Z,86.42
2022-10-19T06:41:27.720Z,86.61
2022-10-19T06:43:56.730Z,86.71
2022-10-19T06:46:26.897Z,86.67
2022-10-19T06:48:56.048Z,86.46
2022-10-19T06:51:25.479Z,86.73
2022-10-19T06:53:56.668Z,86.71
2022-10-19T06:56:25.591Z,86.64
2022-10-19T06:58:53.939Z,86.88
2022-10-19T07:01:22.306Z,87.04
2022-10-19T07:03:52.906Z,86.96
2022-10-19T07:06:21.348Z,87.08
2022-10-19T07:08:49.613Z,86.53
2022-10-19T07:11:19.619Z,86.67
2022-10-19T07:13:47.645Z,86.87
2022-10-19T07:16:20.769Z,86.66
2022-10-19T07:18:50.446Z,86.44
2022-10-19T07:21:20.722Z,86.31
2022-10-19T07:23:49.263Z,86.29
2022-10-19T07:26:19.504Z,86.30
2022-10-19T07:28:49.031Z,86.47
2022-10-19T07:31:20.171Z,86.18
2022-10-19T07:33:48.543Z,86.52
2022-10-19T07:36:16.529Z,86.40
2022-10-19T07:38:45.891Z,86.23
2022-10-19T07:41:15.383Z,86.23
2022-10-19T07:43:44.781Z,86.33
2022-10-19T07:46:15.440Z,85.90
2022-10-19T07:48:43.423Z,86.25
2022-10-19T07:51:12.796Z,86.02
2022-10-19T07:53:41.119Z,86.31
2022-10-19T07:56:12.415Z,85.91
2022-10-19T07:58:41.000Z,85.97
2022-10-19T08:01:11.114Z,86.00
2022-10-19T08:06:28.045Z,85.52
2022-10-19T08:08:57.002Z,85.13
2022-10-19T08:11:28.130Z,85.42
2022-10-19T08:13:58.588Z,85.03
2022-10-19T08:16:29.047Z,85.33
2022-10-19T08:18:59.540Z,84.95
2022-10-19T08:21:28.258Z,84.95
2022-10-19T08:23:56.312Z,85.02
2022-10-19T08:26:24.717Z,84.87
2022-10-19T08:28:54.087Z,84.17
2022-10-19T08:31:24.839Z,83.88
2022-10-19T08:33:53.018Z,83.39
2022-10-19T08:36:21.530Z,83.67
2022-10-19T08:38:50.250Z,83.66
2022-10-19T08:41:33.772Z,83.04
2022-10-19T08:44:18.746Z,83.00
2022-10-19T08:46:53.386Z,82.87
2022-10-19T08:49:24.668Z,82.50
2022-10-19T08:51:56.289Z,82.23
2022-10-19T08:54:25.832Z,81.89
2022-10-19T08:57:04.198Z,82.47
2022-10-19T08:59:38.001Z,82.37
2022-10-19T09:02:13.503Z,81.88
2022-10-19T09:04:43.177Z,81.99
2022-10-19T09:07:25.190Z,82.07
2022-10-19T09:09:57.444Z,81.72
2022-10-19T09:12:43.652Z,81.73
2022-10-19T09:15:14.630Z,81.58
2022-10-19T09:17:42.704Z,81.05
2022-10-19T09:20:17.495Z,80.99
2022-10-19T09:22:46.418Z,81.24
2022-10-19T09:25:17.743Z,81.20
2022-10-19T09:27:48.355Z,81.13
2022-10-19T09:30:20.659Z,81.49
2022-10-19T09:32:49.744Z,80.74
2022-10-19T09:35:28.553Z,80.54
2022-10-19T09:37:57.377Z,80.32
2022-10-19T09:40:27.903Z,79.80
2022-10-19T09:42:58.559Z,79.52
2022-10-19T09:45:33.986Z,79.58
2022-10-19T09:48:07.114Z,79.22
2022-10-19T09:50:43.524Z,79.09
2022-10-19T09:53:20.493Z,78.80
2022-10-19T09:55:52.322Z,78.99
2022-10-19T09:58:21.391Z,77.66
2022-10-19T10:00:54.840Z,78.22
2022-10-19T10:03:25.567Z,78.11
2022-10-19T10:05:54.112Z,78.16
2022-10-19T10:08:25.609Z,78.71
2022-10-19T10:11:06.937Z,77.41
2022-10-19T10:13:38.855Z,76.49
2022-10-19T10:16:10.234Z,78.12
2022-10-19T10:21:33.618Z,77.65
2022-10-19T10:24:05.836Z,77.50
2022-10-19T10:26:39.425Z,77.52
2022-10-19T10:29:19.432Z,77.79
2022-10-19T10:31:50.558Z,77.35
2022-10-19T10:34:37.632Z,77.00
2022-10-19T10:37:09.081Z,76.46
2022-10-19T10:39:41.873Z,76.85
2022-10-19T10:42:12.459Z,76.42
2022-10-19T10:44:45.807Z,76.92
2022-10-19T10:47:17.669Z,76.40
2022-10-19T10:49:53.510Z,75.61
2022-10-19T10:52:21.585Z,75.90
2022-10-19T10:55:00.207Z,75.89
2022-10-19T10:57:32.001Z,75.15
2022-10-19T11:00:07.702Z,75.20
2022-10-19T11:02:46.430Z,74.24
2022-10-19T11:05:19.097Z,73.09
2022-10-19T11:07:49.440Z,73.79
2022-10-19T11:10:26.696Z,74.47
2022-10-19T11:13:00.006Z,74.69
2022-10-19T11:15:31.937Z,74.14
2022-10-19T11:18:14.827Z,73.95
2022-10-19T11:20:47.887Z,73.68
2022-10-19T11:23:20.369Z,73.77
2022-10-19T11:25:57.850Z,74.00
2022-10-19T11:28:38.071Z,74.37
2022-10-19T11:31:16.114Z,74.71
2022-10-19T11:34:04.342Z,74.31
2022-10-19T11:36:43.578Z,73.27
2022-10-19T11:39:32.897Z,73.35
2022-10-19T11:42:07.485Z,72.84
2022-10-19T11:44:49.839Z,72.54
2022-10-19T11:47:37.324Z,72.58
2022-10-19T11:50:19.874Z,72.91
2022-10-19T11:52:51.666Z,73.15
2022-10-19T11:55:27.153Z,73.11
2022-10-19T11:58:00.571Z,73.41
2022-10-19T12:00:39.051Z,73.04
2022-10-19T12:03:19.734Z,72.91
2022-10-19T12:06:00.262Z,72.83
2022-10-19T12:08:39.998Z,73.51
2022-10-19T12:11:23.465Z,72.08
2022-10-19T12:13:54.331Z,71.93
2022-10-19T12:16:25.446Z,72.65
2022-10-19T12:18:56.525Z,71.95
2022-10-19T12:21:30.061Z,72.42
2022-10-19T12:23:58.774Z,71.22
2022-10-19T12:26:29.753Z,71.94
2022-10-19T12:29:01.370Z,72.19
2022-10-19T12:31:30.441Z,71.77
2022-10-19T12:34:03.573Z,71.80
2022-10-19T12:36:42.192Z,71.19
2022-10-19T12:39:16.906Z,71.73
2022-10-19T12:41:52.163Z,72.51
2022-10-19T12:44:59.063Z,72.86
2022-10-19T12:47:27.438Z,71.94
2022-10-19T12:49:56.235Z,72.28
2022-10-19T12:52:38.910Z,72.01
2022-10-19T12:55:28.251Z,72.07
2022-10-19T12:58:02.056Z,72.10
2022-10-19T13:00:32.422Z,71.71
2022-10-19T13:03:03.179Z,71.28
2022-10-19T13:05:33.750Z,71.81
2022-10-19T13:08:06.126Z,71.85
2022-10-19T13:10:36.276Z,72.57
2022-10-19T13:13:04.521Z,71.89
2022-10-19T13:15:56.411Z,71.87
2022-10-19T13:19:09.663Z,71.43
2022-10-19T13:21:52.067Z,71.51
2022-10-19T13:24:35.904Z,71.28
2022-10-19T13:27:25.040Z,70.46
2022-10-19T13:29:53.137Z,70.74
2022-10-19T13:32:38.197Z,70.19
2022-10-19T13:35:27.571Z,69.68
2022-10-19T13:38:12.735Z,69.99
2022-10-19T13:40:57.227Z,67.73
2022-10-19T13:43:27.010Z,67.92
2022-10-19T13:45:55.868Z,68.63
2022-10-19T13:48:30.946Z,67.99
2022-10-19T13:51:02.476Z,68.06
2022-10-19T13:53:42.027Z,67.96
2022-10-19T13:56:41.081Z,67.27
2022-10-19T13:59:56.390Z,68.45
2022-10-19T14:02:49.040Z,67.15
2022-10-19T14:05:32.285Z,68.90
2022-10-19T14:08:08.245Z,68.81
2022-10-19T14:10:56.183Z,69.57
2022-10-19T14:13:26.089Z,69.66
2022-10-19T14:15:55.649Z,70.04
2022-10-19T14:18:25.732Z,71.71
2022-10-19T14:20:58.922Z,71.99
2022-10-19T14:23:28.775Z,71.98
2022-10-19T14:25:59.805Z,71.82
2022-10-19T14:28:29.634Z,71.87
2022-10-19T14:31:00.382Z,72.25
2022-10-19T14:33:29.422Z,72.51
2022-10-19T14:35:57.432Z,72.25
2022-10-19T14:38:30.904Z,72.50
2022-10-19T14:40:58.955Z,72.59
2022-10-19T14:43:30.008Z,73.12
2022-10-19T14:46:10.174Z,72.33
2022-10-19T14:48:39.988Z,72.87
2022-10-19T14:51:15.696Z,72.89
2022-10-19T14:53:46.596Z,72.74
2022-10-19T14:56:16.708Z,73.08
2022-10-19T14:58:49.857Z,72.52
2022-10-19T15:01:19.472Z,72.51
2022-10-19T15:03:49.329Z,72.93
2022-10-19T15:06:22.554Z,72.78
2022-10-19T15:11:29.727Z,72.79
2022-10-19T15:14:02.760Z,73.19
2022-10-19T15:16:43.098Z,73.22
2022-10-19T15:19:20.372Z,73.32
2022-10-19T15:21:48.424Z,73.17
2022-10-19T15:24:27.145Z,73.54
2022-10-19T15:27:08.702Z,73.30
2022-10-19T15:29:38.669Z,73.80
2022-10-19T15:32:16.949Z,73.74
2022-10-19T15:34:45.464Z,74.24
2022-10-19T15:37:19.394Z,73.58
2022-10-19T15:39:47.962Z,73.76
2022-10-19T15:42:23.597Z,74.02
2022-10-19T15:44:52.945Z,74.27
2022-10-19T15:47:23.817Z,74.18
2022-10-19T15:49:57.972Z,74.45
2022-10-19T15:52:27.677Z,74.19
2022-10-19T15:54:57.334Z,74.62
2022-10-19T15:57:28.757Z,74.64
2022-10-19T15:59:59.774Z,74.78
2022-10-19T16:02:27.828Z,74.97
2022-10-19T16:04:56.442Z,75.12
2022-10-19T16:07:27.950Z,75.22
2022-10-19T16:09:56.029Z,75.45
2022-10-19T16:12:25.057Z,75.34
2022-10-19T16:14:53.374Z,75.82
2022-10-19T16:17:23.394Z,75.85
2022-10-19T16:19:51.406Z,75.80
2022-10-19T16:22:19.532Z,75.94
2022-10-19T16:24:47.518Z,76.25
2022-10-19T16:27:16.350Z,76.32
2022-10-19T16:29:45.212Z,76.39
2022-10-19T16:32:13.238Z,76.64
2022-10-19T16:34:42.586Z,76.76
2022-10-19T16:37:10.608Z,76.87
2022-10-19T16:39:38.682Z,76.80
2022-10-19T16:42:06.639Z,76.95
2022-10-19T16:44:34.631Z,77.15
2022-10-19T16:47:02.744Z,77.25
2022-10-19T16:49:30.769Z,77.34
2022-10-19T16:52:01.551Z,77.42
2022-10-19T16:54:30.492Z,77.59
2022-10-19T16:56:58.480Z,77.50
2022-10-19T16:59:26.469Z,77.75
2022-10-19T17:01:54.813Z,77.76
2022-10-19T17:04:22.811Z,77.92
2022-10-19T17:06:50.813Z,77.98
2022-10-19T17:12:09.017Z,78.07
2022-10-19T17:14:37.689Z,78.19
2022-10-19T17:17:05.712Z,78.23
2022-10-19T17:19:34.020Z,78.31
2022-10-19T17:22:03.505Z,78.33
2022-10-19T17:24:33.275Z,78.41
2022-10-19T17:27:02.818Z,78.49
2022-10-19T17:29:31.135Z,78.55
2022-10-19T17:31:59.564Z,78.60
2022-10-19T17:34:28.340Z,78.63
2022-10-19T17:36:56.356Z,78.58
2022-10-19T17:39:28.970Z,78.66
2022-10-19T17:42:02.006Z,78.76
2022-10-19T17:44:31.582Z,78.81
2022-10-19T17:47:01.322Z,78.92
2022-10-19T17:49:30.393Z,79.05
2022-10-19T17:51:58.446Z,78.91
2022-10-19T17:54:26.706Z,79.08
2022-10-19T17:56:54.832Z,79.03
2022-10-19T17:59:34.713Z,79.23
2022-10-19T18:02:03.392Z,79.21
2022-10-19T18:04:31.457Z,79.29
2022-10-19T18:06:59.535Z,79.37
2022-10-19T18:09:27.540Z,79.32
2022-10-19T18:11:55.544Z,79.36
2022-10-19T18:14:24.898Z,79.45
2022-10-19T18:16:53.037Z,79.53
2022-10-19T18:19:21.204Z,79.57
2022-10-19T18:21:49.766Z,79.56
2022-10-19T18:24:19.975Z,79.35
2022-10-19T18:26:48.577Z,79.67
2022-10-19T18:29:17.913Z,79.63
2022-10-19T18:31:51.376Z,79.75
2022-10-19T18:34:21.166Z,79.65
2022-10-19T18:36:49.368Z,79.77
2022-10-19T18:39:17.641Z,79.82
2022-10-19T18:41:45.786Z,79.85
2022-10-19T18:44:14.368Z,79.75
2022-10-19T18:46:42.609Z,79.89
2022-10-19T18:49:12.696Z,79.91
2022-10-19T18:51:40.838Z,79.88
2022-10-19T18:54:09.315Z,80.05
2022-10-19T18:56:37.452Z,80.12
2022-10-19T18:59:05.800Z,79.99
2022-10-19T19:01:33.973Z,79.98
2022-10-19T19:04:07.517Z,80.09
2022-10-19T19:06:38.330Z,80.06
2022-10-19T19:09:08.721Z,80.18
2022-10-19T19:11:38.334Z,80.15
2022-10-19T19:14:08.992Z,80.13
2022-10-19T19:16:39.287Z,80.27
2022-10-19T19:19:08.074Z,80.43
2022-10-19T19:21:37.508Z,80.25
2022-10-19T19:24:07.661Z,80.32
2022-10-19T19:26:38.387Z,80.26
2022-10-19T19:29:06.598Z,80.34
2022-10-19T19:31:34.907Z,80.41
2022-10-19T19:34:05.755Z,80.47
2022-10-19T19:36:33.834Z,80.45
2022-10-19T19:39:03.256Z,80.32
2022-10-19T19:41:34.108Z,80.43
2022-10-19T19:44:02.223Z,80.50
2022-10-19T19:46:30.247Z,80.40
2022-10-19T19:49:03.069Z,80.53
2022-10-19T19:51:32.792Z,80.63
2022-10-19T19:54:01.112Z,80.59
2022-10-19T19:56:30.476Z,80.58
2022-10-19T19:58:59.925Z,80.63
2022-10-19T20:01:28.172Z,80.60
2022-10-19T20:03:59.103Z,80.63
2022-10-19T20:06:27.154Z,80.69
2022-10-19T20:08:56.373Z,80.67
2022-10-19T20:11:26.330Z,80.65
2022-10-19T20:13:56.115Z,80.63
2022-10-19T20:16:29.813Z,80.75
2022-10-19T20:19:00.873Z,80.88
2022-10-19T20:21:28.918Z,80.74
2022-10-19T20:23:56.900Z,80.91
2022-10-19T20:26:25.830Z,80.90
2022-10-19T20:28:55.223Z,80.85
2022-10-19T20:31:23.957Z,80.91
2022-10-19T20:33:52.207Z,80.78
2022-10-19T20:36:22.126Z,80.96
2022-10-19T20:38:52.045Z,80.96
2022-10-19T20:41:21.067Z,80.89
2022-10-19T20:43:49.326Z,80.96
2022-10-19T20:46:21.079Z,81.03
2022-10-19T20:48:49.524Z,80.95
2022-10-19T20:51:18.571Z,81.06
2022-10-19T20:53:49.235Z,80.96
2022-10-19T20:56:18.883Z,81.05
2022-10-19T20:58:47.221Z,81.03
2022-10-19T21:01:16.687Z,81.17
2022-10-19T21:03:48.404Z,81.21
2022-10-19T21:06:16.494Z,81.25
2022-10-19T21:08:44.622Z,81.22
2022-10-19T21:11:14.004Z,81.38
2022-10-19T21:13:42.349Z,81.39
2022-10-19T21:16:12.241Z,81.43
2022-10-19T21:18:40.396Z,81.40
2022-10-19T21:21:14.311Z,81.43
2022-10-19T21:23:42.684Z,81.51
2022-10-19T21:26:10.812Z,81.31
2022-10-19T21:28:39.942Z,81.51
2022-10-19T21:31:09.142Z,81.47
2022-10-19T21:33:37.343Z,81.50
2022-10-19T21:36:07.156Z,81.63
2022-10-19T21:38:36.748Z,81.64
2022-10-19T21:41:06.570Z,81.60
2022-10-19T21:43:35.563Z,81.55
2022-10-19T21:46:03.961Z,81.62
2022-10-19T21:48:33.112Z,81.58
2022-10-19T21:51:01.422Z,81.46
2022-10-19T21:53:29.413Z,81.52
2022-10-19T21:56:00.260Z,81.56
2022-10-19T21:58:28.232Z,81.66
2022-10-19T22:00:56.230Z,81.71
2022-10-19T22:03:24.181Z,81.68
2022-10-19T22:05:52.596Z,81.57
2022-10-19T22:08:20.609Z,81.64
2022-10-19T22:10:48.601Z,81.62
2022-10-19T22:13:17.967Z,81.65
2022-10-19T22:15:45.965Z,81.72
2022-10-19T22:18:13.996Z,81.72
2022-10-19T22:20:42.028Z,81.69
2022-10-19T22:23:10.015Z,81.82
2022-10-19T22:25:38.066Z,81.87
2022-10-19T22:28:06.078Z,81.77
2022-10-19T22:30:35.458Z,81.92
2022-10-19T22:33:03.449Z,82.02
2022-10-19T22:35:31.461Z,81.98
2022-10-19T22:37:59.459Z,82.18
2022-10-19T22:40:27.418Z,82.06
2022-10-19T22:42:55.405Z,82.23
2022-10-19T22:45:23.404Z,82.27
2022-10-19T22:47:52.736Z,82.32
2022-10-19T22:50:20.756Z,82.28
2022-10-19T22:52:48.751Z,82.14
2022-10-19T22:55:16.975Z,82.11
2022-10-19T22:57:44.939Z,82.20
2022-10-19T23:00:13.824Z,82.24
2022-10-19T23:02:41.833Z,82.34
2022-10-19T23:05:11.444Z,82.24
2022-10-19T23:07:39.557Z,82.44
2022-10-19T23:10:08.227Z,82.25
2022-10-19T23:12:36.244Z,82.31
2022-10-19T23:15:04.556Z,82.33
2022-10-19T23:17:32.827Z,82.53
2022-10-19T23:20:01.004Z,82.75
2022-10-19T23:22:30.403Z,82.57
2022-10-19T23:24:58.389Z,82.13
2022-10-19T23:27:26.512Z,82.63
2022-10-19T23:29:54.518Z,82.72
2022-10-19T23:32:22.559Z,82.70
2022-10-19T23:34:50.564Z,82.61
2022-10-19T23:37:18.648Z,82.61
2022-10-19T23:39:48.051Z,82.37
2022-10-19T23:42:16.023Z,82.50
2022-10-19T23:44:44.028Z,82.51
2022-10-19T23:47:12.013Z,82.36
2022-10-19T23:49:40.005Z,82.35
2022-10-19T23:52:08.069Z,81.89
2022-10-19T23:54:36.077Z,82.23
2022-10-19T23:57:05.525Z,82.19
2022-10-19T23:59:33.521Z,82.17
